Time;durP1;ratioP1;P1;durP2;ratioP2;P2;SDS_P1;SDS_P2;PMS_P1;PMS_P2;Temp;Humidity;BMP_temperature;BMP_pressure;BME280_temperature;BME280_humidity;BME280_pressure;Samples;Min_cycle;Max_cycle;Signal;HPM_P1;HPM_P2
2023/08/08 00:00:47;;;;;;;0.90;0.80;;;;;;;;;;5062323;28;20377;-79
2023/08/08 00:03:13;;;;;;;1.90;0.90;;;;;;;;;;5074510;28;20437;-79
2023/08/08 00:05:39;;;;;;;1.40;0.70;;;;;;;;;;5057600;28;20397;-79
2023/08/08 00:08:05;;;;;;;0.90;0.70;;;;;;;;;;5071244;28;20399;-79
2023/08/08 00:10:31;;;;;;;0.85;0.85;;;;;;;;;;5073375;28;20881;-78
2023/08/08 00:12:57;;;;;;;1.65;0.82;;;;;;;;;;5073503;28;20375;-78
2023/08/08 00:15:23;;;;;;;0.82;0.80;;;;;;;;;;5074148;28;20383;-79
2023/08/08 00:17:49;;;;;;;4.32;3.13;;;;;;;;;;5073615;28;20390;-79
2023/08/08 00:20:15;;;;;;;1.85;0.82;;;;;;;;;;5073489;28;20872;-79
2023/08/08 00:22:41;;;;;;;1.67;1.08;;;;;;;;;;5059333;28;20452;-79
2023/08/08 00:25:08;;;;;;;1.40;1.00;;;;;;;;;;5053141;28;20385;-79
2023/08/08 00:27:34;;;;;;;1.88;0.88;;;;;;;;;;5047281;28;20745;-79
2023/08/08 00:30:01;;;;;;;1.45;0.80;;;;;;;;;;5054098;28;20417;-79
2023/08/08 00:32:27;;;;;;;2.50;0.80;;;;;;;;;;5052923;28;20384;-79
2023/08/08 00:34:53;;;;;;;1.38;1.00;;;;;;;;;;5066727;28;20392;-79
2023/08/08 00:37:18;;;;;;;1.10;0.90;;;;;;;;;;5053002;28;20417;-79
2023/08/08 00:39:46;;;;;;;1.70;0.85;;;;;;;;;;5053071;28;20393;-79
2023/08/08 00:42:12;;;;;;;1.00;0.90;;;;;;;;;;5052669;28;20401;-79
2023/08/08 00:44:40;;;;;;;2.28;1.00;;;;;;;;;;5063161;28;20380;-78
2023/08/08 00:47:06;;;;;;;1.53;0.90;;;;;;;;;;5053517;28;20453;-79
2023/08/08 00:49:32;;;;;;;1.33;1.00;;;;;;;;;;5063464;28;20447;-79
2023/08/08 00:51:58;;;;;;;1.48;1.02;;;;;;;;;;5056085;28;20427;-78
2023/08/08 00:54:24;;;;;;;2.50;0.90;;;;;;;;;;5044030;28;20865;-79
2023/08/08 00:56:50;;;;;;;1.02;0.88;;;;;;;;;;5057557;28;20855;-79
2023/08/08 00:59:19;;;;;;;1.20;0.90;;;;;;;;;;5059910;28;20386;-78
2023/08/08 01:01:45;;;;;;;1.88;0.80;;;;;;;;;;5072843;28;20443;-79
2023/08/08 01:04:12;;;;;;;1.27;1.10;;;;;;;;;;5054763;28;20404;-79
2023/08/08 01:06:53;;;;;;;1.65;0.90;;;;;;;;;;5069409;28;20388;-79
2023/08/08 01:09:36;;;;;;;1.02;0.93;;;;;;;;;;5056109;28;20762;-79
2023/08/08 01:12:02;;;;;;;1.42;0.90;;;;;;;;;;5069761;28;20771;-79
2023/08/08 01:14:29;;;;;;;1.00;0.90;;;;;;;;;;5062612;28;20379;-79
2023/08/08 01:16:57;;;;;;;1.83;1.00;;;;;;;;;;5076040;28;20388;-79
2023/08/08 01:19:28;;;;;;;0.70;0.70;;;;;;;;;;5075876;28;20405;-79
2023/08/08 01:21:56;;;;;;;1.10;1.00;;;;;;;;;;5076200;28;20387;-79
2023/08/08 01:24:23;;;;;;;1.00;1.00;;;;;;;;;;5062323;28;20508;-79
2023/08/08 01:26:50;;;;;;;1.98;0.80;;;;;;;;;;5056239;28;20464;-79
2023/08/08 01:29:16;;;;;;;1.50;0.90;;;;;;;;;;5056081;28;20886;-79
2023/08/08 01:31:42;;;;;;;3.78;1.20;;;;;;;;;;5069659;28;20439;-80
2023/08/08 01:34:08;;;;;;;0.88;0.75;;;;;;;;;;5055557;28;20377;-79
2023/08/08 01:36:44;;;;;;;0.98;0.85;;;;;;;;;;5071937;28;20445;-79
2023/08/08 01:39:13;;;;;;;0.93;0.80;;;;;;;;;;5065850;28;20393;-79
2023/08/08 01:41:40;;;;;;;0.80;0.80;;;;;;;;;;5055402;28;20377;-79
2023/08/08 01:44:06;;;;;;;1.80;0.90;;;;;;;;;;5055536;28;20381;-79
2023/08/08 01:46:32;;;;;;;1.63;0.90;;;;;;;;;;5054838;28;20386;-79
2023/08/08 01:48:59;;;;;;;1.48;1.00;;;;;;;;;;5061101;28;20414;-79
2023/08/08 01:51:25;;;;;;;1.48;0.95;;;;;;;;;;5062873;28;20381;-79
2023/08/08 01:53:52;;;;;;;0.85;0.80;;;;;;;;;;5059755;28;20384;-79
2023/08/08 01:56:18;;;;;;;2.92;0.90;;;;;;;;;;5064009;28;20385;-78
2023/08/08 01:58:44;;;;;;;1.20;0.90;;;;;;;;;;5065515;28;20432;-79
2023/08/08 02:01:10;;;;;;;1.42;0.90;;;;;;;;;;5063670;28;20387;-79
2023/08/08 02:03:36;;;;;;;1.40;0.90;;;;;;;;;;5060232;28;20393;-79
2023/08/08 02:06:01;;;;;;;1.05;0.80;;;;;;;;;;5061278;28;20772;-79
2023/08/08 02:08:28;;;;;;;1.95;1.10;;;;;;;;;;5073232;28;20408;-79
2023/08/08 02:10:53;;;;;;;1.10;1.00;;;;;;;;;;5060294;28;20387;-79
2023/08/08 02:13:19;;;;;;;2.17;1.10;;;;;;;;;;5067267;28;20465;-79
2023/08/08 02:15:45;;;;;;;1.30;0.90;;;;;;;;;;5072253;28;20407;-79
2023/08/08 02:18:12;;;;;;;1.50;0.75;;;;;;;;;;5063650;28;20402;-79
2023/08/08 02:20:37;;;;;;;1.23;0.90;;;;;;;;;;5069897;28;20380;-78
2023/08/08 02:23:04;;;;;;;1.55;0.85;;;;;;;;;;5073783;28;20441;-79
2023/08/08 02:25:30;;;;;;;0.90;0.80;;;;;;;;;;5053579;28;20468;-79
2023/08/08 02:27:56;;;;;;;0.80;0.70;;;;;;;;;;5054608;28;20385;-79
2023/08/08 02:30:22;;;;;;;1.10;0.88;;;;;;;;;;5068517;28;20407;-79
2023/08/08 02:32:49;;;;;;;0.95;0.90;;;;;;;;;;5073734;28;20527;-79
2023/08/08 02:35:15;;;;;;;2.10;0.80;;;;;;;;;;5071456;28;20768;-79
2023/08/08 02:37:41;;;;;;;1.20;0.80;;;;;;;;;;5054057;28;20385;-78
2023/08/08 02:40:09;;;;;;;1.00;0.80;;;;;;;;;;5068043;28;20844;-79
2023/08/08 02:42:35;;;;;;;1.10;0.93;;;;;;;;;;5061284;28;20386;-79
2023/08/08 02:45:01;;;;;;;1.45;1.00;;;;;;;;;;5061794;28;20456;-79
2023/08/08 02:47:27;;;;;;;1.35;1.08;;;;;;;;;;5072810;28;20877;-79
2023/08/08 02:49:53;;;;;;;2.80;1.10;;;;;;;;;;5074644;28;20424;-79
2023/08/08 02:52:19;;;;;;;2.10;0.80;;;;;;;;;;5071530;28;20860;-79
2023/08/08 02:54:45;;;;;;;1.00;0.82;;;;;;;;;;5061875;28;20380;-78
2023/08/08 02:57:11;;;;;;;1.40;1.00;;;;;;;;;;5058799;28;20871;-79
2023/08/08 02:59:38;;;;;;;0.73;0.70;;;;;;;;;;5053428;28;20392;-79
2023/08/08 03:02:04;;;;;;;1.15;1.05;;;;;;;;;;5053710;28;20720;-79
2023/08/08 03:04:30;;;;;;;2.43;1.03;;;;;;;;;;5067996;28;20381;-79
2023/08/08 03:06:56;;;;;;;2.35;0.90;;;;;;;;;;5062221;28;20421;-79
2023/08/08 03:09:22;;;;;;;0.98;0.80;;;;;;;;;;5059606;28;20419;-79
2023/08/08 03:11:48;;;;;;;1.30;0.80;;;;;;;;;;5064354;28;20457;-79
2023/08/08 03:14:14;;;;;;;0.90;0.80;;;;;;;;;;5053779;28;20488;-79
2023/08/08 03:16:40;;;;;;;1.20;0.90;;;;;;;;;;5053487;28;20392;-79
2023/08/08 03:19:06;;;;;;;1.38;0.90;;;;;;;;;;5053327;28;20439;-78
2023/08/08 03:21:32;;;;;;;1.90;0.82;;;;;;;;;;5054726;28;20479;-79
2023/08/08 03:23:58;;;;;;;0.98;0.85;;;;;;;;;;5073767;28;20825;-79
2023/08/08 03:26:24;;;;;;;1.00;0.90;;;;;;;;;;5070750;28;20422;-79
2023/08/08 03:28:53;;;;;;;1.55;1.00;;;;;;;;;;5052051;28;20410;-79
2023/08/08 03:31:19;;;;;;;1.38;1.05;;;;;;;;;;5053348;28;20385;-79
2023/08/08 03:33:45;;;;;;;0.77;0.77;;;;;;;;;;5053741;28;20382;-79
2023/08/08 03:36:11;;;;;;;1.20;1.00;;;;;;;;;;5064815;28;20388;-78
2023/08/08 03:38:37;;;;;;;1.20;0.93;;;;;;;;;;5073408;28;20429;-78
2023/08/08 03:41:04;;;;;;;1.50;0.90;;;;;;;;;;5073298;28;20738;-79
2023/08/08 03:43:30;;;;;;;1.00;0.88;;;;;;;;;;5073358;28;20388;-79
2023/08/08 03:45:56;;;;;;;1.08;0.93;;;;;;;;;;5073238;28;20376;-79
2023/08/08 03:48:22;;;;;;;1.20;1.00;;;;;;;;;;5073584;28;20434;-79
2023/08/08 03:50:48;;;;;;;1.15;0.88;;;;;;;;;;5073131;28;20388;-79
2023/08/08 03:53:14;;;;;;;1.60;1.10;;;;;;;;;;5073347;28;20383;-80
2023/08/08 03:55:40;;;;;;;1.15;1.02;;;;;;;;;;5072748;28;20919;-79
2023/08/08 03:58:06;;;;;;;1.30;1.20;;;;;;;;;;5072928;28;20380;-79
2023/08/08 04:00:32;;;;;;;1.95;0.93;;;;;;;;;;5073108;28;20414;-79
2023/08/08 04:02:58;;;;;;;0.95;0.95;;;;;;;;;;5073040;28;20386;-79
2023/08/08 04:05:24;;;;;;;1.50;1.00;;;;;;;;;;5072047;28;20771;-79
2023/08/08 04:07:50;;;;;;;1.20;1.10;;;;;;;;;;5072541;28;20391;-78
2023/08/08 04:10:16;;;;;;;1.50;1.10;;;;;;;;;;5073051;28;20461;-79
2023/08/08 04:12:42;;;;;;;1.30;1.08;;;;;;;;;;5072758;28;20376;-79
2023/08/08 04:15:09;;;;;;;1.00;0.95;;;;;;;;;;5072105;28;20387;-79
2023/08/08 04:17:35;;;;;;;1.30;0.90;;;;;;;;;;5072849;28;20841;-79
2023/08/08 04:20:01;;;;;;;2.38;1.00;;;;;;;;;;5074085;28;20402;-81
2023/08/08 04:22:27;;;;;;;1.65;1.10;;;;;;;;;;5074098;28;20383;-80
2023/08/08 04:24:53;;;;;;;1.83;1.00;;;;;;;;;;5074049;28;20379;-79
2023/08/08 04:27:19;;;;;;;1.77;0.90;;;;;;;;;;5065212;28;20827;-80
2023/08/08 04:29:45;;;;;;;1.83;1.10;;;;;;;;;;5052104;28;20417;-79
2023/08/08 04:32:11;;;;;;;1.40;0.90;;;;;;;;;;5052813;28;20388;-80
2023/08/08 04:34:37;;;;;;;1.00;0.90;;;;;;;;;;5054128;28;20874;-79
2023/08/08 04:37:03;;;;;;;1.10;1.00;;;;;;;;;;5056054;28;20380;-77
2023/08/08 04:39:29;;;;;;;1.40;1.08;;;;;;;;;;5062376;28;20390;-78
2023/08/08 04:41:55;;;;;;;1.38;0.90;;;;;;;;;;5070682;28;20420;-80
2023/08/08 04:44:21;;;;;;;1.37;1.13;;;;;;;;;;5057779;28;20531;-79
2023/08/08 04:46:47;;;;;;;1.30;1.10;;;;;;;;;;5057465;28;20462;-79
2023/08/08 04:49:13;;;;;;;1.13;0.98;;;;;;;;;;5057545;28;20448;-81
2023/08/08 04:51:39;;;;;;;2.20;1.38;;;;;;;;;;5055974;28;20743;-78
2023/08/08 04:54:05;;;;;;;2.93;1.13;;;;;;;;;;5061201;28;20376;-78
2023/08/08 04:56:31;;;;;;;1.45;1.10;;;;;;;;;;5058384;28;20853;-79
2023/08/08 04:58:57;;;;;;;1.90;1.10;;;;;;;;;;5057256;28;20385;-79
2023/08/08 05:01:23;;;;;;;2.92;1.00;;;;;;;;;;5056709;28;20976;-80
2023/08/08 05:03:49;;;;;;;1.83;1.05;;;;;;;;;;5071354;28;20384;-78
2023/08/08 05:06:15;;;;;;;1.17;1.07;;;;;;;;;;5073702;28;20750;-79
2023/08/08 05:08:41;;;;;;;1.33;0.88;;;;;;;;;;5075393;28;20829;-78
2023/08/08 05:11:07;;;;;;;1.35;1.20;;;;;;;;;;5075249;28;20477;-77
2023/08/08 05:13:33;;;;;;;1.58;1.05;;;;;;;;;;5074853;28;20379;-78
2023/08/08 05:15:59;;;;;;;2.03;1.20;;;;;;;;;;5075230;28;20452;-78
2023/08/08 05:18:25;;;;;;;1.15;1.02;;;;;;;;;;5075174;28;20391;-79
2023/08/08 05:20:51;;;;;;;0.80;0.80;;;;;;;;;;5075524;28;20450;-79
2023/08/08 05:23:17;;;;;;;1.20;1.10;;;;;;;;;;5074811;28;20437;-79
2023/08/08 05:25:43;;;;;;;0.90;0.90;;;;;;;;;;5075343;28;20391;-79
2023/08/08 05:28:09;;;;;;;1.20;1.08;;;;;;;;;;5064755;28;20393;-80
2023/08/08 05:30:35;;;;;;;1.52;1.10;;;;;;;;;;5068514;28;20391;-78
2023/08/08 05:33:01;;;;;;;1.60;1.15;;;;;;;;;;5056432;28;20801;-78
2023/08/08 05:35:27;;;;;;;1.65;1.35;;;;;;;;;;5057413;28;20385;-78
2023/08/08 05:37:53;;;;;;;2.00;1.35;;;;;;;;;;5058139;28;20403;-80
2023/08/08 05:40:19;;;;;;;1.48;1.27;;;;;;;;;;5074306;28;20407;-79
2023/08/08 05:42:45;;;;;;;1.33;1.10;;;;;;;;;;5073558;28;20398;-79
2023/08/08 05:45:11;;;;;;;3.70;1.40;;;;;;;;;;5074238;28;20395;-79
2023/08/08 05:47:37;;;;;;;1.30;1.20;;;;;;;;;;5075554;28;20400;-79
2023/08/08 05:50:03;;;;;;;2.42;1.40;;;;;;;;;;5074811;28;20418;-78
2023/08/08 05:52:30;;;;;;;1.50;1.30;;;;;;;;;;5073821;28;20368;-79
2023/08/08 05:54:56;;;;;;;1.60;1.50;;;;;;;;;;5075118;28;20384;-79
2023/08/08 05:57:22;;;;;;;1.58;1.30;;;;;;;;;;5074877;28;20376;-79
2023/08/08 05:59:51;;;;;;;2.00;1.50;;;;;;;;;;5074810;28;20833;-78
2023/08/08 06:02:17;;;;;;;3.00;1.80;;;;;;;;;;5074823;28;20408;-79
2023/08/08 06:04:43;;;;;;;2.60;1.60;;;;;;;;;;5075464;28;20415;-81
2023/08/08 06:07:09;;;;;;;4.15;2.00;;;;;;;;;;5075106;28;20435;-80
2023/08/08 06:09:37;;;;;;;2.90;1.70;;;;;;;;;;5074453;28;20437;-79
2023/08/08 06:12:03;;;;;;;2.78;2.15;;;;;;;;;;5074854;28;20391;-80
2023/08/08 06:14:29;;;;;;;4.90;3.03;;;;;;;;;;5071334;28;20380;-78
2023/08/08 06:16:55;;;;;;;3.20;2.50;;;;;;;;;;5075592;28;20375;-80
2023/08/08 06:19:21;;;;;;;3.40;2.08;;;;;;;;;;5075704;28;20874;-79
2023/08/08 06:21:47;;;;;;;2.05;1.58;;;;;;;;;;5075676;28;20391;-80
2023/08/08 06:24:13;;;;;;;2.47;1.90;;;;;;;;;;5066561;28;20459;-78
2023/08/08 06:26:39;;;;;;;1.90;1.65;;;;;;;;;;5059153;28;20472;-79
2023/08/08 06:29:05;;;;;;;3.30;1.80;;;;;;;;;;5064659;28;20425;-79
2023/08/08 06:31:31;;;;;;;2.95;1.55;;;;;;;;;;5057059;28;20385;-79
2023/08/08 06:33:57;;;;;;;3.03;1.95;;;;;;;;;;5075673;28;20470;-79
2023/08/08 06:36:23;;;;;;;4.43;1.98;;;;;;;;;;5060014;28;20396;-79
2023/08/08 06:38:49;;;;;;;3.63;1.90;;;;;;;;;;5055052;28;20797;-79
2023/08/08 06:41:15;;;;;;;2.00;1.80;;;;;;;;;;5054254;28;20447;-79
2023/08/08 06:43:41;;;;;;;3.47;2.05;;;;;;;;;;5054678;28;20389;-79
2023/08/08 06:46:07;;;;;;;3.42;2.00;;;;;;;;;;5054474;28;20381;-79
2023/08/08 06:48:33;;;;;;;2.50;1.45;;;;;;;;;;5057597;28;20409;-79
2023/08/08 06:50:59;;;;;;;2.30;1.70;;;;;;;;;;5074628;28;20463;-79
2023/08/08 06:53:26;;;;;;;1.40;1.00;;;;;;;;;;5060814;28;20416;-80
2023/08/08 06:55:52;;;;;;;1.60;1.20;;;;;;;;;;5068157;28;20381;-79
2023/08/08 06:58:17;;;;;;;1.55;0.90;;;;;;;;;;5054553;28;20392;-79
2023/08/08 07:00:45;;;;;;;1.25;1.10;;;;;;;;;;5054622;28;20388;-79
2023/08/08 07:03:11;;;;;;;2.13;1.10;;;;;;;;;;5055059;28;20471;-79
2023/08/08 07:05:38;;;;;;;3.47;1.00;;;;;;;;;;5055487;28;20382;-80
2023/08/08 07:08:04;;;;;;;1.20;1.10;;;;;;;;;;5072266;28;20864;-81
2023/08/08 07:10:30;;;;;;;1.35;1.25;;;;;;;;;;5071979;28;20404;-80
2023/08/08 07:12:56;;;;;;;1.65;1.30;;;;;;;;;;5074798;28;20387;-80
2023/08/08 07:15:22;;;;;;;1.75;0.80;;;;;;;;;;5075244;28;20729;-80
2023/08/08 07:17:48;;;;;;;3.85;1.27;;;;;;;;;;5074842;28;20388;-80
2023/08/08 07:20:14;;;;;;;1.42;1.20;;;;;;;;;;5074889;28;20449;-79
2023/08/08 07:22:40;;;;;;;1.73;1.00;;;;;;;;;;5073997;28;20372;-79
2023/08/08 07:25:07;;;;;;;2.10;1.20;;;;;;;;;;5074256;28;20392;-80
2023/08/08 07:27:33;;;;;;;1.50;1.20;;;;;;;;;;5075167;28;20378;-80
2023/08/08 07:30:00;;;;;;;1.35;1.02;;;;;;;;;;5074274;28;20901;-79
2023/08/08 07:32:26;;;;;;;1.75;1.00;;;;;;;;;;5073260;28;20404;-80
2023/08/08 07:34:52;;;;;;;1.20;1.08;;;;;;;;;;5073323;28;20383;-81
2023/08/08 07:37:18;;;;;;;1.13;1.02;;;;;;;;;;5061594;28;20448;-79
2023/08/08 07:39:44;;;;;;;1.20;0.80;;;;;;;;;;5046186;28;20384;-80
2023/08/08 07:42:10;;;;;;;1.75;1.00;;;;;;;;;;5074369;28;20426;-80
2023/08/08 07:44:38;;;;;;;1.10;1.00;;;;;;;;;;5073096;28;20821;-80
2023/08/08 07:47:04;;;;;;;1.33;1.00;;;;;;;;;;5074264;28;20464;-80
2023/08/08 07:49:30;;;;;;;0.90;0.90;;;;;;;;;;5074106;28;20399;-80
2023/08/08 07:51:56;;;;;;;1.00;0.90;;;;;;;;;;5073868;28;20433;-79
2023/08/08 07:54:22;;;;;;;1.33;1.10;;;;;;;;;;5074115;28;20381;-80
2023/08/08 07:56:48;;;;;;;1.30;1.00;;;;;;;;;;5073938;28;20399;-79
2023/08/08 07:59:14;;;;;;;2.97;0.95;;;;;;;;;;5056981;28;20918;-80
2023/08/08 08:01:40;;;;;;;1.65;0.90;;;;;;;;;;5073280;28;20386;-80
2023/08/08 08:04:06;;;;;;;1.83;0.80;;;;;;;;;;5076110;28;20726;-80
2023/08/08 08:06:32;;;;;;;1.27;0.95;;;;;;;;;;5075040;28;20408;-79
2023/08/08 08:08:58;;;;;;;1.30;0.90;;;;;;;;;;5063958;28;20821;-82
2023/08/08 08:11:24;;;;;;;1.17;0.90;;;;;;;;;;5069934;28;20462;-80
2023/08/08 08:13:50;;;;;;;2.45;1.05;;;;;;;;;;5071725;28;20404;-80
2023/08/08 08:16:16;;;;;;;1.17;0.88;;;;;;;;;;5076817;28;20395;-80
2023/08/08 08:18:42;;;;;;;1.20;0.90;;;;;;;;;;5076260;28;20386;-81
2023/08/08 08:21:08;;;;;;;1.05;0.95;;;;;;;;;;5079271;28;20380;-80
2023/08/08 08:23:34;;;;;;;1.95;0.90;;;;;;;;;;5078895;28;20801;-80
2023/08/08 08:26:00;;;;;;;1.15;0.95;;;;;;;;;;5079168;28;20459;-82
2023/08/08 08:28:27;;;;;;;1.67;0.90;;;;;;;;;;5060282;28;20422;-81
2023/08/08 08:30:53;;;;;;;1.08;0.90;;;;;;;;;;5075195;28;20391;-81
2023/08/08 08:33:19;;;;;;;2.58;0.90;;;;;;;;;;5079297;28;20390;-81
2023/08/08 08:35:46;;;;;;;2.28;1.10;;;;;;;;;;5079889;28;20380;-82
2023/08/08 08:38:12;;;;;;;2.40;0.90;;;;;;;;;;5080013;28;20387;-80
2023/08/08 08:40:41;;;;;;;2.08;0.93;;;;;;;;;;5078818;28;20422;-80
2023/08/08 08:43:07;;;;;;;1.70;0.90;;;;;;;;;;5080413;28;20414;-82
2023/08/08 08:45:38;;;;;;;1.65;0.80;;;;;;;;;;5063345;28;20391;-81
2023/08/08 08:48:04;;;;;;;1.13;0.93;;;;;;;;;;5081687;28;20857;-81
2023/08/08 08:50:32;;;;;;;1.15;0.80;;;;;;;;;;5081263;28;20379;-80
2023/08/08 08:52:59;;;;;;;2.70;1.23;;;;;;;;;;5078841;28;20478;-81
2023/08/08 08:55:26;;;;;;;1.70;0.90;;;;;;;;;;5079800;28;20383;-80
2023/08/08 08:57:52;;;;;;;1.10;0.98;;;;;;;;;;5059982;28;20388;-80
2023/08/08 09:00:18;;;;;;;1.23;1.00;;;;;;;;;;5078663;28;20398;-82
2023/08/08 09:02:44;;;;;;;1.40;1.00;;;;;;;;;;5079310;28;20384;-81
2023/08/08 09:05:11;;;;;;;1.08;0.93;;;;;;;;;;5076594;28;20384;-80
2023/08/08 09:07:37;;;;;;;1.48;0.95;;;;;;;;;;5077913;28;20877;-81
2023/08/08 09:10:06;;;;;;;0.93;0.70;;;;;;;;;;5079070;28;20419;-81
2023/08/08 09:12:34;;;;;;;1.40;0.80;;;;;;;;;;5079757;28;20771;-79
2023/08/08 09:15:00;;;;;;;1.50;0.77;;;;;;;;;;5067222;28;20383;-83
2023/08/08 09:17:26;;;;;;;1.30;0.90;;;;;;;;;;5080518;28;20434;-83
2023/08/08 09:19:54;;;;;;;1.88;0.70;;;;;;;;;;5081056;28;20379;-81
2023/08/08 09:22:20;;;;;;;1.17;0.77;;;;;;;;;;5063934;28;20409;-82
2023/08/08 09:24:46;;;;;;;1.20;0.75;;;;;;;;;;5081314;28;20379;-80
2023/08/08 09:27:12;;;;;;;2.33;0.80;;;;;;;;;;5081769;28;20392;-82
2023/08/08 09:29:39;;;;;;;1.83;0.83;;;;;;;;;;5081191;28;20415;-79
2023/08/08 09:32:06;;;;;;;1.83;0.75;;;;;;;;;;5063365;28;20415;-81
2023/08/08 09:34:32;;;;;;;1.60;0.90;;;;;;;;;;5080183;28;20376;-80
2023/08/08 09:36:59;;;;;;;1.38;0.80;;;;;;;;;;5061225;28;20740;-81
2023/08/08 09:39:25;;;;;;;1.20;0.80;;;;;;;;;;5083325;28;20910;-82
2023/08/08 09:41:51;;;;;;;1.23;0.75;;;;;;;;;;5079792;28;20407;-81
2023/08/08 09:44:18;;;;;;;1.40;0.80;;;;;;;;;;5080082;28;20395;-81
2023/08/08 09:46:44;;;;;;;1.30;0.82;;;;;;;;;;5079715;28;20448;-81
2023/08/08 09:49:13;;;;;;;0.95;0.70;;;;;;;;;;5044631;28;20415;-81
2023/08/08 09:51:40;;;;;;;0.95;0.82;;;;;;;;;;5079684;28;20391;-80
2023/08/08 09:54:06;;;;;;;1.05;0.70;;;;;;;;;;5079636;28;20375;-82
2023/08/08 09:56:33;;;;;;;0.95;0.70;;;;;;;;;;5079776;28;20375;-81
2023/08/08 09:59:00;;;;;;;1.67;0.80;;;;;;;;;;5060586;28;20388;-81
2023/08/08 10:01:26;;;;;;;0.80;0.70;;;;;;;;;;5077669;28;20417;-80
2023/08/08 10:03:52;;;;;;;1.63;0.70;;;;;;;;;;5076840;28;20383;-82
2023/08/08 10:06:19;;;;;;;1.58;0.88;;;;;;;;;;5079915;28;20388;-82
2023/08/08 10:08:45;;;;;;;1.40;0.80;;;;;;;;;;5070087;28;20402;-80
2023/08/08 10:11:12;;;;;;;0.90;0.70;;;;;;;;;;5058918;28;20395;-82
2023/08/08 10:13:39;;;;;;;1.13;0.77;;;;;;;;;;5058785;28;20384;-80
2023/08/08 10:16:08;;;;;;;0.82;0.70;;;;;;;;;;5059007;28;20398;-82
2023/08/08 10:18:34;;;;;;;1.40;0.65;;;;;;;;;;5059605;28;20430;-82
2023/08/08 10:21:00;;;;;;;1.98;0.90;;;;;;;;;;5077459;28;20372;-82
2023/08/08 10:23:27;;;;;;;1.30;0.90;;;;;;;;;;5058556;28;20889;-81
2023/08/08 10:25:53;;;;;;;0.95;0.80;;;;;;;;;;5059464;28;20408;-82
2023/08/08 10:28:20;;;;;;;2.43;0.80;;;;;;;;;;5079730;28;20720;-83
2023/08/08 10:30:48;;;;;;;1.23;0.73;;;;;;;;;;5079485;28;20395;-83
2023/08/08 10:33:18;;;;;;;1.63;0.85;;;;;;;;;;5060416;28;20420;-83
2023/08/08 10:35:56;;;;;;;1.23;0.70;;;;;;;;;;5070919;28;20391;-82
2023/08/08 10:38:26;;;;;;;1.13;0.85;;;;;;;;;;5077064;28;20801;-79
2023/08/08 10:40:58;;;;;;;0.70;0.60;;;;;;;;;;5079742;28;20462;-81
2023/08/08 10:43:28;;;;;;;1.20;0.80;;;;;;;;;;5078377;28;20387;-82
2023/08/08 10:46:04;;;;;;;1.30;0.70;;;;;;;;;;5078543;28;20845;-81
2023/08/08 10:48:30;;;;;;;1.13;0.80;;;;;;;;;;5061114;28;20412;-82
2023/08/08 10:51:00;;;;;;;1.33;0.70;;;;;;;;;;5077988;28;20879;-82
2023/08/08 10:53:27;;;;;;;1.00;0.70;;;;;;;;;;5079401;28;20384;-81
2023/08/08 10:56:00;;;;;;;0.80;0.70;;;;;;;;;;5060849;28;20486;-81
2023/08/08 10:58:35;;;;;;;1.05;0.80;;;;;;;;;;5079349;28;20380;-83
2023/08/08 11:01:01;;;;;;;0.98;0.73;;;;;;;;;;5077729;28;20390;-82
2023/08/08 11:03:28;;;;;;;1.00;0.70;;;;;;;;;;5073862;28;20399;-82
2023/08/08 11:05:54;;;;;;;2.60;0.80;;;;;;;;;;5079722;28;20388;-81
2023/08/08 11:08:22;;;;;;;2.20;0.70;;;;;;;;;;5077729;28;20387;-81
2023/08/08 11:10:52;;;;;;;1.13;0.70;;;;;;;;;;5079380;28;20387;-81
2023/08/08 11:13:17;;;;;;;0.80;0.70;;;;;;;;;;5057456;28;20400;-82
2023/08/08 11:15:44;;;;;;;1.35;0.70;;;;;;;;;;5074388;28;20514;-81
2023/08/08 11:18:10;;;;;;;1.13;0.70;;;;;;;;;;5080256;28;20376;-82
2023/08/08 11:20:37;;;;;;;0.90;0.68;;;;;;;;;;5062487;28;20741;-83
2023/08/08 11:23:05;;;;;;;1.30;0.80;;;;;;;;;;5081533;28;20379;-82
2023/08/08 11:25:32;;;;;;;2.20;0.80;;;;;;;;;;5081335;28;20472;-80
2023/08/08 11:27:58;;;;;;;1.08;0.77;;;;;;;;;;5078180;28;20376;-80
2023/08/08 11:30:25;;;;;;;1.33;0.80;;;;;;;;;;5078102;28;20450;-81
2023/08/08 11:32:51;;;;;;;1.42;0.80;;;;;;;;;;5081191;28;20395;-81
2023/08/08 11:35:18;;;;;;;1.60;0.80;;;;;;;;;;5081638;28;20747;-82
2023/08/08 11:37:45;;;;;;;2.20;0.90;;;;;;;;;;5079663;28;20410;-81
2023/08/08 11:40:12;;;;;;;1.50;0.50;;;;;;;;;;5069690;28;20388;-81
2023/08/08 11:42:38;;;;;;;1.00;0.70;;;;;;;;;;5082484;28;20398;-83
2023/08/08 11:45:05;;;;;;;1.30;0.98;;;;;;;;;;5081412;28;20379;-83
2023/08/08 11:47:35;;;;;;;1.52;0.80;;;;;;;;;;5080313;28;20392;-83
2023/08/08 11:50:02;;;;;;;1.40;0.88;;;;;;;;;;5058212;28;20411;-84
2023/08/08 11:52:28;;;;;;;1.15;0.70;;;;;;;;;;5085315;28;20383;-83
2023/08/08 11:55:02;;;;;;;2.10;0.87;;;;;;;;;;5066520;28;20482;-83
2023/08/08 11:57:28;;;;;;;1.13;0.70;;;;;;;;;;5076827;28;20449;-80
2023/08/08 11:59:54;;;;;;;1.10;0.63;;;;;;;;;;5077165;28;20375;-83
2023/08/08 12:02:20;;;;;;;1.33;0.80;;;;;;;;;;5075886;28;20481;-81
2023/08/08 12:04:46;;;;;;;1.10;0.77;;;;;;;;;;5062385;28;20376;-82
2023/08/08 12:07:13;;;;;;;1.95;0.70;;;;;;;;;;5049038;28;20400;-81
2023/08/08 12:09:40;;;;;;;1.93;0.87;;;;;;;;;;5079535;28;20913;-82
2023/08/08 12:12:06;;;;;;;0.95;0.77;;;;;;;;;;5080132;28;20391;-82
2023/08/08 12:14:38;;;;;;;0.70;0.60;;;;;;;;;;5079990;28;20447;-80
2023/08/08 12:17:05;;;;;;;1.27;0.80;;;;;;;;;;5061321;28;20395;-82
2023/08/08 12:19:31;;;;;;;1.25;0.82;;;;;;;;;;5061267;28;20375;-81
2023/08/08 12:21:57;;;;;;;1.35;0.80;;;;;;;;;;5059357;28;20394;-81
2023/08/08 12:24:23;;;;;;;2.10;0.80;;;;;;;;;;5060563;28;20785;-81
2023/08/08 12:26:49;;;;;;;1.60;0.77;;;;;;;;;;5078981;28;20379;-81
2023/08/08 12:29:14;;;;;;;1.20;0.70;;;;;;;;;;5078645;28;20419;-81
2023/08/08 12:31:41;;;;;;;0.93;0.70;;;;;;;;;;5078725;28;20768;-81
2023/08/08 12:34:07;;;;;;;1.00;0.80;;;;;;;;;;5078793;28;20390;-81
2023/08/08 12:36:34;;;;;;;1.45;0.85;;;;;;;;;;5079895;28;20429;-81
2023/08/08 12:39:00;;;;;;;1.23;0.82;;;;;;;;;;5061595;28;20861;-80
2023/08/08 12:41:26;;;;;;;1.02;0.70;;;;;;;;;;5061451;28;20408;-81
2023/08/08 12:43:52;;;;;;;1.20;0.80;;;;;;;;;;5066301;28;20463;-81
2023/08/08 12:46:18;;;;;;;1.48;0.85;;;;;;;;;;5079818;28;20384;-82
2023/08/08 12:48:44;;;;;;;1.00;0.90;;;;;;;;;;5080342;28;20471;-82
2023/08/08 12:53:41;;;;;;;1.23;0.80;;;;;;;;;;5076780;28;20509;-82
2023/08/08 12:56:06;;;;;;;0.93;0.77;;;;;;;;;;5078892;28;20449;-81
2023/08/08 12:58:32;;;;;;;1.40;0.73;;;;;;;;;;5056930;28;20774;-81
2023/08/08 13:00:58;;;;;;;0.80;0.70;;;;;;;;;;5057470;28;20376;-81
2023/08/08 13:03:24;;;;;;;0.98;0.70;;;;;;;;;;5091157;28;20745;-81
2023/08/08 13:05:51;;;;;;;1.10;0.80;;;;;;;;;;5088934;28;20458;-82
2023/08/08 13:08:17;;;;;;;0.98;0.77;;;;;;;;;;5098415;28;20378;-82
2023/08/08 13:10:43;;;;;;;2.25;0.82;;;;;;;;;;5080196;28;20386;-81
2023/08/08 13:13:10;;;;;;;0.93;0.68;;;;;;;;;;5099641;28;20382;-81
2023/08/08 13:15:36;;;;;;;1.38;0.70;;;;;;;;;;5099053;28;20421;-82
2023/08/08 13:18:02;;;;;;;1.17;0.80;;;;;;;;;;5080477;28;20846;-82
2023/08/08 13:20:28;;;;;;;1.08;0.80;;;;;;;;;;5099556;28;20414;-82
2023/08/08 13:22:54;;;;;;;1.92;1.00;;;;;;;;;;5088010;28;20374;-82
2023/08/08 13:25:20;;;;;;;1.77;0.77;;;;;;;;;;5090310;28;20382;-82
2023/08/08 13:27:47;;;;;;;1.48;0.75;;;;;;;;;;5092889;28;20389;-82
2023/08/08 13:30:15;;;;;;;2.13;0.83;;;;;;;;;;5099336;28;20386;-82
2023/08/08 13:32:41;;;;;;;1.52;0.60;;;;;;;;;;5099205;28;20370;-82
2023/08/08 13:35:08;;;;;;;2.10;0.75;;;;;;;;;;5081536;28;20411;-82
2023/08/08 13:37:34;;;;;;;1.10;0.70;;;;;;;;;;5096211;28;20378;-82
2023/08/08 13:40:00;;;;;;;1.95;0.77;;;;;;;;;;5084076;28;20419;-81
2023/08/08 13:42:26;;;;;;;1.02;0.70;;;;;;;;;;5098934;28;20370;-81
2023/08/08 13:44:52;;;;;;;1.00;0.70;;;;;;;;;;5094068;28;20382;-81
2023/08/08 13:47:18;;;;;;;0.80;0.80;;;;;;;;;;5097868;28;20461;-81
2023/08/08 13:49:43;;;;;;;0.90;0.77;;;;;;;;;;5086218;28;20483;-82
2023/08/08 13:52:10;;;;;;;1.17;0.80;;;;;;;;;;5096648;28;20382;-82
2023/08/08 13:54:36;;;;;;;0.80;0.70;;;;;;;;;;5086993;28;20844;-82
2023/08/08 13:57:02;;;;;;;1.05;0.70;;;;;;;;;;5088698;28;20449;-82
2023/08/08 13:59:28;;;;;;;0.93;0.70;;;;;;;;;;5098423;28;20412;-82
2023/08/08 14:01:54;;;;;;;0.80;0.70;;;;;;;;;;5082773;28;20414;-82
2023/08/08 14:04:20;;;;;;;0.88;0.80;;;;;;;;;;5097135;28;20410;-82
2023/08/08 14:06:46;;;;;;;2.65;0.80;;;;;;;;;;5095157;28;20382;-82
2023/08/08 14:09:12;;;;;;;1.23;0.90;;;;;;;;;;5065520;28;20390;-82
2023/08/08 14:11:38;;;;;;;0.90;0.73;;;;;;;;;;5062945;28;20484;-82
2023/08/08 14:14:04;;;;;;;1.05;0.90;;;;;;;;;;5077114;28;20901;-82
2023/08/08 14:16:30;;;;;;;2.28;1.60;;;;;;;;;;5083914;28;20418;-82
2023/08/08 14:18:56;;;;;;;1.73;1.00;;;;;;;;;;5074444;28;20398;-82
2023/08/08 14:21:22;;;;;;;1.40;0.80;;;;;;;;;;5097139;28;20439;-82
2023/08/08 14:23:48;;;;;;;1.10;0.80;;;;;;;;;;5076196;28;20721;-81
2023/08/08 14:26:14;;;;;;;1.83;0.80;;;;;;;;;;5057849;28;20379;-81
2023/08/08 14:28:40;;;;;;;1.70;0.80;;;;;;;;;;5084804;28;20433;-81
2023/08/08 14:31:06;;;;;;;1.00;0.65;;;;;;;;;;5084209;28;20382;-82
2023/08/08 14:33:33;;;;;;;1.23;0.77;;;;;;;;;;5079587;28;20865;-82
2023/08/08 14:35:59;;;;;;;2.15;0.90;;;;;;;;;;5087168;28;20398;-82
2023/08/08 14:38:25;;;;;;;1.30;0.80;;;;;;;;;;5058660;28;20459;-82
2023/08/08 14:40:56;;;;;;;1.02;0.80;;;;;;;;;;5076621;28;20419;-81